KPTW/PTW METAR and TAF weather

Enter ICAO airport designator
Station Type Date Time Source
KPTW METAR 2019/06/27 04:54 UTC NOAA

KPTW 270454Z AUTO 00000KT 10SM BKN120 20/19 A3009 RMK AO2 SLP185 T02000189 403000150


Station Type Date Time Source
KPTW Decoded METAR 2019/06/27 04:54 UTC NOAA

POTTSTOWN LIMERICK AIRPORT, PA, United States (KPTW) 40-14N 075-33W 89M
Jun 27, 2019 - 12:54 AM EDT / 2019.06.27 0454 UTC
Wind: Calm:0
Visibility: 10 mile(s):0
Sky conditions: mostly cloudy
Temperature: 68.0 F (20.0 C)
Dew Point: 66.0 F (18.9 C)
Relative Humidity: 93%
Pressure (altimeter): 30.09 in. Hg (1018 hPa)
ob: KPTW 270454Z AUTO 00000KT 10SM BKN120 20/19 A3009 RMK AO2 SLP185 T02000189 403000150
cycle: 5

Station Type Date Time Source
KPTW TAF UTC NOAA

Error!

Example: see airport list